Time;durP1;ratioP1;P1;durP2;ratioP2;P2;SDS_P1;SDS_P2;PMS_P1;PMS_P2;Temp;Humidity;BMP_temperature;BMP_pressure;BME280_temperature;BME280_humidity;BME280_pressure;Samples;Min_cycle;Max_cycle;Signal;HPM_P1;HPM_P2
2023/06/10 00:01:24;;;;;;;6.88;5.57;;;;;;;21.52;77.51;101047.09;6183115;23;19997;-79
2023/06/10 00:03:51;;;;;;;6.18;5.57;;;;;;;21.44;77.78;101048.84;6157460;23;20009;-79
2023/06/10 00:06:17;;;;;;;6.95;6.10;;;;;;;21.23;79.19;101046.75;6158752;23;20069;-79
2023/06/10 00:08:43;;;;;;;8.95;5.65;;;;;;;21.27;79.19;101055.63;6132857;23;20013;-79
2023/06/10 00:11:08;;;;;;;9.40;5.25;;;;;;;21.33;79.46;101054.00;6157509;23;20013;-78
2023/06/10 00:13:34;;;;;;;6.50;5.60;;;;;;;21.30;79.36;101058.91;6157391;23;20009;-80
2023/06/10 00:15:59;;;;;;;7.60;5.82;;;;;;;21.19;80.25;101052.91;6156611;23;20325;-79
2023/06/10 00:18:26;;;;;;;9.77;5.18;;;;;;;21.12;81.03;101063.94;6154616;23;20109;-80
2023/06/10 00:20:54;;;;;;;6.35;5.72;;;;;;;21.04;82.18;101059.28;6166999;23;20500;-79
2023/06/10 00:23:21;;;;;;;6.35;5.75;;;;;;;20.98;83.13;101061.94;6153403;23;20005;-79
2023/06/10 00:25:46;;;;;;;8.20;5.78;;;;;;;20.99;82.47;101052.53;6154663;23;20013;-80
2023/06/10 00:28:13;;;;;;;7.85;5.88;;;;;;;20.94;82.99;101055.91;6132004;23;20108;-81
2023/06/10 00:30:38;;;;;;;9.45;6.05;;;;;;;20.90;83.23;101051.72;6181288;23;20005;-79
2023/06/10 00:33:04;;;;;;;7.70;6.35;;;;;;;20.74;84.99;101052.69;6156967;23;20009;-80
2023/06/10 00:35:29;;;;;;;8.77;6.13;;;;;;;20.62;86.52;101052.22;6156577;23;20029;-79
2023/06/10 00:37:55;;;;;;;9.32;5.97;;;;;;;20.65;86.14;101053.81;6155328;23;20013;-79
2023/06/10 00:40:20;;;;;;;7.47;5.97;;;;;;;20.57;84.22;101041.63;6127841;23;20060;-79
2023/06/10 00:42:46;;;;;;;9.15;6.68;;;;;;;20.62;85.32;101060.56;6153893;23;20009;-79
2023/06/10 00:45:11;;;;;;;6.93;6.22;;;;;;;20.68;84.59;101051.53;6153896;23;20032;-80
2023/06/10 00:47:38;;;;;;;13.93;6.10;;;;;;;20.66;84.74;101058.31;6150985;23;20013;-79
2023/06/10 00:50:04;;;;;;;6.90;5.93;;;;;;;20.51;86.06;101060.97;6153201;23;20016;-78
2023/06/10 00:52:32;;;;;;;8.48;6.28;;;;;;;20.51;87.12;101064.66;6179289;23;20017;-77
2023/06/10 00:54:59;;;;;;;8.00;6.25;;;;;;;20.43;87.65;101064.69;6153738;23;20017;-78
2023/06/10 00:57:25;;;;;;;10.48;6.30;;;;;;;20.38;88.39;101053.22;6154385;23;20005;-79
2023/06/10 00:59:51;;;;;;;8.85;6.28;;;;;;;20.35;88.35;101060.03;6178304;23;20032;-77
2023/06/10 01:02:16;;;;;;;10.18;6.68;;;;;;;20.31;89.85;101069.75;6205082;23;20013;-78
2023/06/10 01:04:48;;;;;;;15.27;6.60;;;;;;;20.29;89.20;101060.72;6176987;23;20005;-79
2023/06/10 01:07:28;;;;;;;11.68;7.05;;;;;;;20.32;88.98;101056.75;6177919;23;20013;-78
2023/06/10 01:09:59;;;;;;;16.33;8.05;;;;;;;20.20;90.56;101067.38;6177120;23;20005;-78
2023/06/10 01:12:39;;;;;;;9.68;6.63;;;;;;;20.17;90.15;101063.03;6176961;23;20009;-78
2023/06/10 01:15:06;;;;;;;8.82;6.55;;;;;;;20.05;92.21;101067.25;6152438;23;20020;-79
2023/06/10 01:17:31;;;;;;;8.57;6.65;;;;;;;19.91;93.91;101068.88;6176019;23;20013;-80
2023/06/10 01:19:57;;;;;;;23.23;7.60;;;;;;;19.81;93.84;101062.66;6176699;23;20005;-79
2023/06/10 01:22:36;;;;;;;9.23;6.50;;;;;;;19.75;94.08;101057.75;6152085;23;20013;-79
2023/06/10 01:25:03;;;;;;;7.90;7.15;;;;;;;19.65;95.74;101064.34;6154101;23;20013;-78
2023/06/10 01:27:32;;;;;;;18.92;7.60;;;;;;;19.65;96.56;101077.38;6177208;23;20020;-79
2023/06/10 01:30:12;;;;;;;12.90;7.28;;;;;;;19.64;95.04;101067.31;6202379;23;20005;-78
2023/06/10 01:32:48;;;;;;;11.15;7.40;;;;;;;19.53;97.13;101068.56;6176057;23;20082;-78
2023/06/10 01:35:15;;;;;;;9.80;6.95;;;;;;;19.44;98.23;101078.78;6201578;23;20059;-79
2023/06/10 01:37:44;;;;;;;8.80;7.95;;;;;;;19.43;98.07;101070.63;6175686;23;20005;-78
2023/06/10 01:40:10;;;;;;;15.18;7.10;;;;;;;19.44;98.17;101069.59;6202157;23;20019;-78
2023/06/10 01:42:36;;;;;;;8.40;7.07;;;;;;;19.29;98.40;101050.84;6152030;23;20013;-78
2023/06/10 01:45:02;;;;;;;8.73;7.00;;;;;;;19.29;97.42;101050.84;6176294;23;20071;-78
2023/06/10 01:47:27;;;;;;;9.55;7.38;;;;;;;19.47;98.59;101072.03;6101469;23;20013;-78
2023/06/10 01:49:53;;;;;;;9.18;7.20;;;;;;;19.40;97.86;101071.84;6180443;23;20053;-80
2023/06/10 01:52:18;;;;;;;9.05;6.95;;;;;;;19.37;98.50;101071.34;6184414;23;20013;-80
2023/06/10 01:54:44;;;;;;;10.93;7.72;;;;;;;19.33;98.51;101069.94;6159008;23;20013;-79
2023/06/10 01:57:10;;;;;;;8.18;6.45;;;;;;;19.36;98.48;101094.59;6135073;23;20013;-79
2023/06/10 01:59:37;;;;;;;11.73;7.32;;;;;;;19.24;99.12;101069.09;6153913;23;20013;-79
2023/06/10 02:02:03;;;;;;;8.60;6.85;;;;;;;19.26;98.56;101080.88;6205714;23;20012;-78
2023/06/10 02:04:29;;;;;;;7.90;6.50;;;;;;;19.18;100.00;101086.44;6181229;23;20043;-79
2023/06/10 02:06:55;;;;;;;9.73;6.65;;;;;;;19.31;98.81;101086.78;6178368;23;20013;-79
2023/06/10 02:09:22;;;;;;;8.82;6.97;;;;;;;19.18;100.00;101081.72;6201324;23;20009;-79
2023/06/10 02:11:48;;;;;;;9.88;7.13;;;;;;;19.23;100.00;101089.56;6174908;23;20012;-79
2023/06/10 02:14:14;;;;;;;11.90;7.07;;;;;;;19.17;100.00;101087.44;6174739;23;20072;-80
2023/06/10 02:16:40;;;;;;;8.43;6.93;;;;;;;19.04;100.00;101077.75;6125595;23;20013;-78
2023/06/10 02:19:06;;;;;;;8.70;7.47;;;;;;;19.02;100.00;101085.38;6174724;23;20483;-77
2023/06/10 02:21:32;;;;;;;13.13;7.55;;;;;;;18.86;100.00;101074.25;6151018;23;20009;-78
2023/06/10 02:23:57;;;;;;;11.10;7.25;;;;;;;18.96;100.00;101087.97;6124708;23;20092;-79
2023/06/10 02:26:25;;;;;;;8.38;7.03;;;;;;;18.92;100.00;101076.31;6150749;23;20020;-79
2023/06/10 02:28:51;;;;;;;10.85;7.25;;;;;;;18.90;100.00;101092.28;6126027;23;20042;-78
2023/06/10 02:31:18;;;;;;;7.72;6.43;;;;;;;18.87;100.00;101082.41;6147579;23;20016;-80
2023/06/10 02:33:44;;;;;;;11.10;6.80;;;;;;;18.89;100.00;101093.34;6148636;23;20017;-80
2023/06/10 02:36:13;;;;;;;8.07;6.85;;;;;;;18.86;100.00;101082.59;6148752;23;20040;-80
2023/06/10 02:38:42;;;;;;;12.20;6.95;;;;;;;18.82;100.00;101098.63;6173865;23;20013;-80
2023/06/10 02:41:08;;;;;;;10.27;6.85;;;;;;;18.83;100.00;101089.31;6148360;23;20025;-78
2023/06/10 02:43:33;;;;;;;18.92;7.68;;;;;;;18.92;100.00;101096.63;6201342;23;20019;-79
2023/06/10 02:45:59;;;;;;;10.18;7.72;;;;;;;18.88;100.00;101089.69;6150854;23;20032;-79
2023/06/10 02:48:24;;;;;;;10.60;7.22;;;;;;;18.81;100.00;101094.16;6175730;23;20028;-80
2023/06/10 02:50:50;;;;;;;8.98;7.88;;;;;;;18.76;100.00;101096.56;6174726;23;20088;-78
2023/06/10 02:53:16;;;;;;;10.38;7.53;;;;;;;18.72;100.00;101084.06;6174309;23;20421;-79
2023/06/10 02:55:42;;;;;;;10.63;8.05;;;;;;;18.65;100.00;101075.53;6123828;23;20013;-81
2023/06/10 02:58:08;;;;;;;15.00;8.35;;;;;;;18.68;100.00;101085.44;6124370;23;20398;-78
2023/06/10 03:00:34;;;;;;;12.38;7.88;;;;;;;18.64;100.00;101070.16;6173543;23;20024;-78
2023/06/10 03:03:02;;;;;;;12.55;8.45;;;;;;;18.78;100.00;101091.72;6150102;23;20020;-78
2023/06/10 03:05:28;;;;;;;13.25;8.85;;;;;;;18.62;100.00;101064.78;6173002;23;20012;-78
2023/06/10 03:07:53;;;;;;;11.57;8.73;;;;;;;18.75;100.00;101086.50;6198698;23;20009;-78
2023/06/10 03:10:19;;;;;;;16.83;8.32;;;;;;;18.69;100.00;101085.28;6122937;23;20008;-78
2023/06/10 03:12:44;;;;;;;11.82;8.75;;;;;;;18.65;100.00;101097.75;6123210;23;20325;-78
2023/06/10 03:15:10;;;;;;;12.48;9.10;;;;;;;18.59;100.00;101087.31;6147422;23;20020;-78
2023/06/10 03:17:36;;;;;;;15.63;10.25;;;;;;;18.58;100.00;101095.81;6172976;23;20069;-79
2023/06/10 03:20:03;;;;;;;13.38;9.27;;;;;;;18.50;100.00;101096.66;6199758;23;20012;-79
2023/06/10 03:22:28;;;;;;;15.40;9.98;;;;;;;18.51;100.00;101093.72;6174160;23;20020;-78
2023/06/10 03:24:54;;;;;;;13.90;9.75;;;;;;;18.34;100.00;101098.31;6148064;23;20013;-78
2023/06/10 03:27:20;;;;;;;13.25;10.02;;;;;;;18.32;100.00;101105.94;6173279;23;20092;-78
2023/06/10 03:29:45;;;;;;;12.07;9.70;;;;;;;18.31;100.00;101103.31;6124850;23;20013;-78
2023/06/10 03:32:11;;;;;;;13.55;9.98;;;;;;;18.29;100.00;101099.84;6148698;23;20072;-81
2023/06/10 03:34:36;;;;;;;11.93;9.27;;;;;;;18.27;100.00;101097.25;6174147;23;20017;-78
2023/06/10 03:37:02;;;;;;;13.45;9.52;;;;;;;18.23;100.00;101093.06;6149152;23;20009;-78
2023/06/10 03:39:29;;;;;;;12.00;9.65;;;;;;;18.00;100.00;101082.56;6175782;23;20017;-79
2023/06/10 03:41:56;;;;;;;10.63;9.63;;;;;;;18.08;100.00;101103.91;6175167;23;20020;-80
2023/06/10 03:44:22;;;;;;;15.93;10.43;;;;;;;18.10;100.00;101103.75;6176289;23;20001;-78
2023/06/10 03:46:47;;;;;;;14.55;9.93;;;;;;;18.07;100.00;101109.59;6126139;23;20017;-78
2023/06/10 03:49:14;;;;;;;11.52;9.25;;;;;;;18.06;100.00;101118.97;6104986;23;20009;-80
2023/06/10 03:51:40;;;;;;;14.15;9.50;;;;;;;18.02;100.00;101115.66;6201714;23;20021;-78
2023/06/10 03:54:07;;;;;;;11.20;9.65;;;;;;;18.08;100.00;101122.44;6174074;23;20017;-79
2023/06/10 03:56:33;;;;;;;11.85;9.38;;;;;;;18.16;100.00;101122.47;6174991;23;20020;-79
2023/06/10 03:58:58;;;;;;;10.50;9.40;;;;;;;18.13;100.00;101126.44;6175939;23;20013;-78
2023/06/10 04:01:24;;;;;;;10.35;9.23;;;;;;;18.11;100.00;101111.03;6175335;23;20017;-79
2023/06/10 04:03:51;;;;;;;11.27;10.18;;;;;;;17.98;100.00;101117.88;6175334;23;20012;-79
2023/06/10 04:06:17;;;;;;;12.27;9.93;;;;;;;17.99;100.00;101113.22;6176645;23;20013;-79
2023/06/10 04:08:46;;;;;;;14.60;10.00;;;;;;;18.07;100.00;101129.00;6150584;23;20012;-80
2023/06/10 04:11:11;;;;;;;14.02;10.38;;;;;;;18.05;100.00;101129.16;6147796;23;20040;-82
2023/06/10 04:13:37;;;;;;;12.75;10.25;;;;;;;18.03;100.00;101122.91;6172895;23;20064;-80
2023/06/10 04:16:03;;;;;;;13.68;10.32;;;;;;;18.00;100.00;101120.47;6176773;23;20001;-81
2023/06/10 04:18:28;;;;;;;15.00;10.40;;;;;;;18.13;100.00;101131.13;6176702;23;19997;-78
2023/06/10 04:20:55;;;;;;;14.75;10.10;;;;;;;18.13;100.00;101131.13;6177622;23;20013;-79
2023/06/10 04:23:20;;;;;;;18.45;11.15;;;;;;;18.11;100.00;101128.50;6151020;23;20067;-79
2023/06/10 04:25:46;;;;;;;18.73;10.70;;;;;;;18.13;100.00;101136.66;6176919;23;20012;-79
2023/06/10 04:28:12;;;;;;;17.85;10.45;;;;;;;18.03;100.00;101114.59;6127014;23;20033;-81
2023/06/10 04:30:38;;;;;;;16.55;10.80;;;;;;;18.24;100.00;101130.84;6173828;23;20389;-78
2023/06/10 04:33:03;;;;;;;15.35;10.88;;;;;;;18.31;100.00;101144.91;6170087;23;20009;-79
2023/06/10 04:35:29;;;;;;;14.63;10.73;;;;;;;18.21;100.00;101138.63;6200206;23;20404;-80
2023/06/10 04:37:54;;;;;;;16.55;10.60;;;;;;;18.27;100.00;101147.16;6149016;23;20012;-79
2023/06/10 04:40:20;;;;;;;12.75;11.02;;;;;;;18.40;100.00;101151.34;6148889;23;20008;-79
2023/06/10 04:42:46;;;;;;;14.20;10.80;;;;;;;18.38;100.00;101134.88;6149296;23;20036;-80
2023/06/10 04:45:11;;;;;;;15.07;10.82;;;;;;;18.48;100.00;101143.06;6118135;23;20075;-80
2023/06/10 04:47:37;;;;;;;11.77;10.50;;;;;;;18.52;100.00;101141.72;6141397;23;20010;-77
2023/06/10 04:50:04;;;;;;;11.18;9.98;;;;;;;18.61;100.00;101137.97;6168109;23;20013;-79
2023/06/10 04:52:29;;;;;;;12.32;10.77;;;;;;;18.71;100.00;101147.00;6196354;23;20076;-78
2023/06/10 04:54:55;;;;;;;16.02;10.73;;;;;;;18.76;100.00;101138.19;6147291;23;20009;-79
2023/06/10 04:57:21;;;;;;;18.08;10.32;;;;;;;18.79;100.00;101139.72;6166700;23;20132;-76
2023/06/10 04:59:47;;;;;;;15.07;10.50;;;;;;;18.82;100.00;101143.03;6138624;23;20009;-75
2023/06/10 05:02:13;;;;;;;13.18;10.30;;;;;;;18.88;100.00;101142.41;6186725;23;20017;-76
2023/06/10 05:04:38;;;;;;;10.52;9.43;;;;;;;18.94;100.00;101135.31;6137086;23;20012;-76
2023/06/10 05:07:04;;;;;;;11.95;10.50;;;;;;;18.99;100.00;101143.09;6137419;23;20013;-76
2023/06/10 05:09:30;;;;;;;12.73;9.55;;;;;;;19.02;100.00;101140.88;6161868;23;20013;-77
2023/06/10 05:11:55;;;;;;;15.18;9.30;;;;;;;19.04;100.00;101133.25;6161838;23;20497;-76
2023/06/10 05:14:21;;;;;;;11.80;9.77;;;;;;;19.22;100.00;101144.22;6188539;23;20056;-75
2023/06/10 05:16:48;;;;;;;13.65;9.40;;;;;;;19.41;100.00;101143.03;6189220;23;20013;-75
2023/06/10 05:19:13;;;;;;;12.63;10.20;;;;;;;19.45;100.00;101151.88;6138602;23;20060;-76
2023/06/10 05:21:40;;;;;;;12.45;8.88;;;;;;;19.69;100.00;101148.22;6163028;23;20040;-77
2023/06/10 05:24:06;;;;;;;11.00;9.00;;;;;;;20.00;100.00;101148.41;6162790;23;20017;-77
2023/06/10 05:26:32;;;;;;;12.73;9.27;;;;;;;20.17;100.00;101142.81;6189297;23;20024;-77
2023/06/10 05:28:58;;;;;;;12.88;9.10;;;;;;;20.45;100.00;101150.75;6138830;23;20009;-77
2023/06/10 05:31:24;;;;;;;13.48;9.10;;;;;;;20.64;100.00;101147.53;6140415;23;20009;-76
2023/06/10 05:33:49;;;;;;;11.05;8.80;;;;;;;20.75;100.00;101149.91;6139121;23;20016;-76
2023/06/10 05:36:15;;;;;;;18.40;8.90;;;;;;;20.92;100.00;101152.63;6113091;23;20009;-77
2023/06/10 05:38:40;;;;;;;16.38;8.82;;;;;;;21.29;98.25;101145.44;6163230;23;20017;-76
2023/06/10 05:41:06;;;;;;;16.02;8.75;;;;;;;21.64;95.48;101159.81;6136735;23;20361;-76
2023/06/10 05:43:31;;;;;;;12.52;8.82;;;;;;;21.60;96.51;101147.31;6136589;23;20016;-76
2023/06/10 05:45:57;;;;;;;15.65;8.52;;;;;;;21.83;91.26;101148.16;6087104;23;20013;-77
2023/06/10 05:48:23;;;;;;;10.77;8.55;;;;;;;22.25;88.46;101162.56;6135287;23;20095;-76
2023/06/10 05:50:49;;;;;;;10.13;8.82;;;;;;;22.41;88.39;101155.09;6158884;23;20037;-76
2023/06/10 05:53:15;;;;;;;14.90;8.48;;;;;;;22.38;88.84;101159.13;6110247;23;20020;-76
2023/06/10 05:55:45;;;;;;;12.55;7.97;;;;;;;22.56;87.26;101154.03;6186312;23;20016;-77
2023/06/10 05:58:12;;;;;;;14.68;8.50;;;;;;;22.72;85.48;101152.09;6133056;23;20009;-77
2023/06/10 06:00:38;;;;;;;15.80;8.90;;;;;;;22.80;86.16;101154.78;6157512;23;20044;-77
2023/06/10 06:03:07;;;;;;;12.27;8.45;;;;;;;23.11;83.60;101153.69;6156553;23;20013;-77
2023/06/10 06:05:34;;;;;;;15.73;8.05;;;;;;;23.27;83.16;101150.63;6156910;23;20013;-75
2023/06/10 06:08:10;;;;;;;9.60;7.90;;;;;;;23.38;82.72;101157.66;6110304;23;20044;-76
2023/06/10 06:10:35;;;;;;;14.07;7.45;;;;;;;23.77;78.89;101150.69;6109345;23;20080;-76
2023/06/10 06:13:01;;;;;;;12.52;6.80;;;;;;;23.80;77.68;101152.22;6184684;23;20032;-76
2023/06/10 06:15:27;;;;;;;11.40;7.03;;;;;;;24.11;73.74;101159.41;6131126;23;20009;-75
2023/06/10 06:17:53;;;;;;;11.88;7.30;;;;;;;24.39;72.45;101165.81;6184912;23;20017;-75
2023/06/10 06:20:22;;;;;;;12.90;7.03;;;;;;;24.67;68.71;101155.69;6158433;23;20377;-76
2023/06/10 06:22:48;;;;;;;17.00;7.25;;;;;;;24.57;71.05;101159.72;6157073;23;20448;-75
2023/06/10 06:25:13;;;;;;;12.57;7.13;;;;;;;24.72;68.89;101158.72;6160353;23;20009;-77
2023/06/10 06:27:39;;;;;;;11.05;6.90;;;;;;;24.81;67.22;101163.09;6086756;23;20037;-75
2023/06/10 06:30:05;;;;;;;16.90;6.97;;;;;;;25.05;67.89;101160.81;6156001;23;20013;-76
2023/06/10 06:32:31;;;;;;;18.92;6.72;;;;;;;25.07;66.98;101164.25;6135528;23;20377;-76
2023/06/10 06:34:56;;;;;;;11.80;6.60;;;;;;;25.19;65.54;101161.72;6158875;23;20148;-75
2023/06/10 06:37:26;;;;;;;9.68;6.85;;;;;;;25.22;63.94;101167.78;6109440;23;20429;-77
2023/06/10 06:39:52;;;;;;;10.07;6.47;;;;;;;25.31;62.35;101165.66;6160253;23;20009;-78
2023/06/10 06:42:18;;;;;;;10.25;6.88;;;;;;;25.39;61.01;101165.47;6158333;23;20394;-77
2023/06/10 06:44:45;;;;;;;11.27;6.80;;;;;;;25.77;60.63;101178.91;6159838;23;20013;-77
2023/06/10 06:47:10;;;;;;;11.00;6.40;;;;;;;26.17;60.88;101175.25;6190142;23;20032;-77
2023/06/10 06:49:36;;;;;;;11.55;6.78;;;;;;;26.11;60.96;101176.16;6187382;23;20046;-78
2023/06/10 06:52:02;;;;;;;11.38;7.03;;;;;;;26.32;56.85;101180.66;6135460;23;20024;-78
2023/06/10 06:54:27;;;;;;;15.80;6.55;;;;;;;26.67;56.84;101177.59;6159743;23;20020;-77
2023/06/10 06:56:53;;;;;;;11.57;5.57;;;;;;;26.88;56.66;101176.44;6158980;23;20028;-77
2023/06/10 06:59:19;;;;;;;11.05;6.13;;;;;;;26.68;56.30;101183.00;6183319;23;20009;-78
2023/06/10 07:01:46;;;;;;;7.47;5.60;;;;;;;26.78;54.39;101179.72;6132275;23;20013;-76
2023/06/10 07:04:15;;;;;;;9.65;5.63;;;;;;;26.74;54.86;101184.03;6182210;23;20063;-77
2023/06/10 07:06:40;;;;;;;8.30;5.90;;;;;;;27.01;54.93;101184.81;6155390;23;20040;-76
2023/06/10 07:09:06;;;;;;;6.70;5.90;;;;;;;27.02;53.94;101182.84;6156490;23;20041;-77
2023/06/10 07:11:31;;;;;;;11.43;5.60;;;;;;;27.28;54.75;101188.34;6112531;23;20021;-75
2023/06/10 07:13:57;;;;;;;10.68;5.90;;;;;;;27.88;51.22;101181.50;6135033;23;20103;-77
2023/06/10 07:16:22;;;;;;;11.43;5.68;;;;;;;27.23;54.33;101187.31;6108895;23;20005;-77
2023/06/10 07:18:48;;;;;;;8.20;5.80;;;;;;;27.24;53.39;101184.28;6160014;23;20393;-77
2023/06/10 07:21:13;;;;;;;11.95;5.97;;;;;;;27.55;50.39;101187.34;6159235;23;20342;-76
2023/06/10 07:23:43;;;;;;;8.85;5.70;;;;;;;27.29;51.56;101190.13;6159397;23;20005;-76
2023/06/10 07:26:10;;;;;;;13.00;6.78;;;;;;;27.65;50.74;101196.19;6159823;23;20152;-75
2023/06/10 07:28:39;;;;;;;11.23;5.65;;;;;;;27.75;50.43;101193.72;6185762;23;20094;-76
2023/06/10 07:31:07;;;;;;;11.30;6.68;;;;;;;27.69;50.41;101201.13;6159790;23;20009;-76
2023/06/10 07:33:32;;;;;;;8.48;6.43;;;;;;;27.56;50.10;101191.91;6186553;23;20013;-77
2023/06/10 07:35:58;;;;;;;9.27;5.82;;;;;;;27.98;50.93;101195.09;6135515;23;20424;-76
2023/06/10 07:38:25;;;;;;;12.52;6.15;;;;;;;27.57;50.50;101191.69;6186602;23;20017;-78
2023/06/10 07:40:50;;;;;;;18.52;5.45;;;;;;;27.85;49.12;101184.78;6161267;23;20460;-76
2023/06/10 07:43:16;;;;;;;11.48;5.90;;;;;;;28.22;47.54;101184.91;6161349;23;20013;-76
2023/06/10 07:45:45;;;;;;;6.43;4.55;;;;;;;28.47;48.35;101186.88;6185279;23;20422;-77
2023/06/10 07:48:11;;;;;;;11.52;6.07;;;;;;;28.50;48.48;101186.38;6159374;23;20036;-79
2023/06/10 07:50:37;;;;;;;9.30;4.82;;;;;;;28.38;48.82;101189.09;6159504;23;20048;-78
2023/06/10 07:53:02;;;;;;;8.60;5.32;;;;;;;28.70;46.50;101198.34;6136264;23;20060;-77
2023/06/10 07:55:28;;;;;;;10.15;5.10;;;;;;;29.05;45.67;101192.03;6109298;23;20013;-77
2023/06/10 07:57:54;;;;;;;8.63;5.53;;;;;;;28.80;46.19;101177.19;6161390;23;20445;-76
2023/06/10 08:00:20;;;;;;;8.35;5.13;;;;;;;29.01;45.37;101202.09;6149819;23;20093;-77
2023/06/10 08:02:46;;;;;;;9.85;5.43;;;;;;;28.66;46.44;101194.25;6188620;23;20009;-76
2023/06/10 08:05:11;;;;;;;9.05;5.32;;;;;;;29.10;44.00;101197.84;6133824;23;20063;-79
2023/06/10 08:07:37;;;;;;;10.68;5.07;;;;;;;29.95;43.25;101193.19;6134519;23;20345;-75
2023/06/10 08:10:03;;;;;;;9.60;5.25;;;;;;;29.45;44.59;101190.66;6135128;23;20044;-77
2023/06/10 08:12:30;;;;;;;8.55;4.97;;;;;;;28.80;44.46;101197.78;6135380;23;20009;-77
2023/06/10 08:14:55;;;;;;;10.50;4.93;;;;;;;29.37;44.33;101196.66;6135303;23;20013;-77
2023/06/10 08:17:21;;;;;;;13.75;4.95;;;;;;;29.70;44.13;101190.53;6111315;23;20457;-76
2023/06/10 08:19:46;;;;;;;11.68;5.00;;;;;;;29.73;42.11;101204.16;6159320;23;20059;-78
2023/06/10 08:22:12;;;;;;;10.35;5.15;;;;;;;29.88;42.45;101204.59;6185606;23;20013;-75
2023/06/10 08:24:37;;;;;;;10.45;5.00;;;;;;;29.66;42.41;101197.75;6161078;23;20079;-78
2023/06/10 08:27:03;;;;;;;8.52;4.72;;;;;;;30.05;41.26;101201.91;6111393;23;20013;-79
2023/06/10 08:29:31;;;;;;;7.88;4.13;;;;;;;30.08;41.23;101197.75;6110600;23;20070;-78
2023/06/10 08:31:56;;;;;;;7.18;4.45;;;;;;;29.93;41.06;101201.06;6133045;23;20017;-77
2023/06/10 08:34:22;;;;;;;6.35;4.32;;;;;;;29.54;42.80;101194.03;6095734;23;20255;-76
2023/06/10 08:36:47;;;;;;;12.82;4.72;;;;;;;29.70;41.61;101199.00;6049710;23;20069;-76
2023/06/10 08:39:13;;;;;;;8.27;4.38;;;;;;;29.83;40.80;101196.00;6075362;23;20021;-76
2023/06/10 08:44:18;;;;;;;15.40;4.45;;;;;;;29.85;40.06;101176.84;6149687;23;20054;-78
2023/06/10 08:46:45;;;;;;;9.05;4.65;;;;;;;29.94;40.85;101188.66;6126969;23;20042;-77
2023/06/10 08:49:17;;;;;;;7.68;4.38;;;;;;;30.62;39.69;101199.66;6125154;23;20006;-79
2023/06/10 08:51:43;;;;;;;10.85;4.72;;;;;;;30.25;39.57;101197.88;6124955;23;19993;-78
2023/06/10 08:54:19;;;;;;;9.48;4.18;;;;;;;30.66;39.29;101201.72;6151854;23;20085;-78
2023/06/10 08:56:51;;;;;;;6.88;4.00;;;;;;;31.14;38.05;101203.41;6104079;23;19998;-78
2023/06/10 08:59:16;;;;;;;5.30;4.03;;;;;;;30.95;37.24;101213.16;6153594;23;20010;-78
2023/06/10 09:01:43;;;;;;;6.07;3.80;;;;;;;30.75;38.85;101202.22;6127947;23;20018;-78
2023/06/10 09:04:10;;;;;;;14.85;4.60;;;;;;;30.75;38.96;101208.72;6104046;23;20002;-78
2023/06/10 09:06:36;;;;;;;6.00;4.35;;;;;;;30.06;39.38;101205.63;6104180;23;19998;-79
2023/06/10 09:09:03;;;;;;;9.15;4.50;;;;;;;30.40;38.12;101205.91;6127788;23;20069;-78
2023/06/10 09:11:29;;;;;;;8.27;4.55;;;;;;;30.35;38.42;101198.16;6127456;23;20045;-78
2023/06/10 09:19:07;;;;;;;4.70;4.18;;;;;;;30.83;39.04;101192.47;6207350;23;20081;-78
2023/06/10 09:21:34;;;;;;;8.80;4.25;;;;;;;30.71;36.92;101190.56;6212245;23;19997;-79
2023/06/10 09:24:00;;;;;;;9.32;4.00;;;;;;;31.14;37.51;101194.91;6185520;23;19997;-79
2023/06/10 09:26:29;;;;;;;7.95;4.07;;;;;;;31.70;36.55;101186.69;6186305;23;19997;-79
2023/06/10 09:29:04;;;;;;;8.60;3.67;;;;;;;31.76;36.19;101195.28;6186247;23;19997;-77
2023/06/10 09:31:31;;;;;;;5.88;3.88;;;;;;;31.50;36.30;101189.09;6162264;23;20012;-77
2023/06/10 09:34:07;;;;;;;7.88;3.85;;;;;;;31.54;37.04;101192.31;6211017;23;20077;-79
2023/06/10 09:36:35;;;;;;;6.32;3.97;;;;;;;31.31;37.03;101185.63;6161793;23;20015;-79
2023/06/10 09:39:01;;;;;;;7.70;3.78;;;;;;;31.43;37.02;101185.56;6162530;23;20021;-79
2023/06/10 09:41:40;;;;;;;8.35;3.90;;;;;;;32.03;36.54;101182.16;6129471;23;20022;-77
2023/06/10 09:44:13;;;;;;;8.00;4.20;;;;;;;31.41;37.52;101177.31;6149661;23;20017;-78
2023/06/10 09:46:38;;;;;;;9.98;4.07;;;;;;;31.48;37.06;101180.00;6150823;23;20477;-78
2023/06/10 09:49:04;;;;;;;6.82;4.10;;;;;;;31.68;36.93;101179.56;6049751;23;20014;-78
2023/06/10 09:51:29;;;;;;;7.05;4.05;;;;;;;31.47;38.19;101169.81;6098869;23;20018;-79
2023/06/10 09:53:55;;;;;;;5.82;4.18;;;;;;;31.33;36.97;101181.41;6099318;23;20050;-78
2023/06/10 09:56:23;;;;;;;6.25;4.25;;;;;;;31.43;36.50;101182.72;6099303;23;19990;-78
2023/06/10 09:58:53;;;;;;;7.35;3.80;;;;;;;31.63;36.45;101179.47;6124468;23;20062;-78
2023/06/10 10:01:18;;;;;;;8.27;4.38;;;;;;;31.23;37.58;101175.56;6076591;23;20028;-78
2023/06/10 10:03:49;;;;;;;7.05;3.65;;;;;;;31.70;37.62;101178.19;6124408;23;20018;-79
2023/06/10 10:06:17;;;;;;;5.15;4.05;;;;;;;31.94;37.30;101168.69;6125623;23;20025;-79
2023/06/10 10:08:43;;;;;;;5.45;4.10;;;;;;;31.90;36.82;101174.00;6077518;23;20002;-79
2023/06/10 10:11:09;;;;;;;10.40;4.63;;;;;;;31.92;36.19;101180.28;6152235;23;20002;-79
2023/06/10 10:13:35;;;;;;;7.07;3.70;;;;;;;31.32;36.84;101174.06;6149791;23;20026;-80
2023/06/10 10:16:11;;;;;;;9.23;3.97;;;;;;;31.69;36.33;101170.81;6126655;23;20020;-79
2023/06/10 10:18:39;;;;;;;6.28;3.72;;;;;;;32.12;34.89;101157.13;6151537;23;19996;-79
2023/06/10 10:21:11;;;;;;;5.03;3.95;;;;;;;32.27;35.65;101165.03;6151933;23;20017;-79
2023/06/10 10:23:44;;;;;;;6.57;4.03;;;;;;;31.90;36.56;101157.00;6124625;23;20025;-79
2023/06/10 10:26:11;;;;;;;4.40;3.80;;;;;;;32.10;36.06;101165.03;6125842;23;20022;-79
2023/06/10 10:28:44;;;;;;;9.65;3.80;;;;;;;31.91;35.01;101167.25;6098637;23;20014;-79
2023/06/10 10:31:14;;;;;;;6.38;3.95;;;;;;;32.50;35.36;101163.09;6147942;23;20049;-79
2023/06/10 10:33:59;;;;;;;6.38;3.70;;;;;;;32.20;34.86;101165.19;6123301;23;20053;-79
2023/06/10 10:36:26;;;;;;;8.93;3.88;;;;;;;32.32;34.90;101159.44;6099135;23;19994;-79
2023/06/10 10:38:52;;;;;;;7.97;4.00;;;;;;;32.44;34.22;101170.66;6122388;23;20025;-79
2023/06/10 10:41:19;;;;;;;6.45;3.80;;;;;;;32.28;34.45;101155.41;6121393;23;20022;-79
2023/06/10 10:43:46;;;;;;;5.10;3.50;;;;;;;32.32;35.65;101152.88;6123130;23;20024;-79
2023/06/10 10:46:14;;;;;;;8.40;3.85;;;;;;;32.71;34.13;101164.25;6100304;23;20030;-79
2023/06/10 10:48:42;;;;;;;4.35;3.65;;;;;;;32.34;35.23;101156.34;6123753;23;19998;-79
2023/06/10 10:51:09;;;;;;;11.35;3.88;;;;;;;32.23;34.47;101153.31;6101011;23;19998;-79
2023/06/10 10:53:36;;;;;;;5.90;3.58;;;;;;;32.12;34.38;101153.44;6099722;23;20002;-79
2023/06/10 10:56:07;;;;;;;4.05;3.75;;;;;;;32.32;33.92;101150.94;6101583;23;20070;-79
2023/06/10 10:58:33;;;;;;;6.95;4.18;;;;;;;32.16;33.45;101151.81;6100901;23;20021;-80
2023/06/10 11:00:58;;;;;;;8.00;3.53;;;;;;;32.81;34.98;101140.84;6152424;23;20010;-79
2023/06/10 11:06:00;;;;;;;7.38;3.88;;;;;;;32.21;34.92;101127.22;6078419;23;19916;-78
2023/06/10 11:08:28;;;;;;;4.75;3.97;;;;;;;32.55;35.29;101141.34;6183961;23;20028;-79
2023/06/10 11:10:53;;;;;;;6.10;3.78;;;;;;;32.47;33.64;101141.78;6158821;23;20021;-79
2023/06/10 11:13:21;;;;;;;6.13;3.72;;;;;;;32.37;33.03;101134.00;6185878;23;20048;-78
2023/06/10 11:15:50;;;;;;;8.55;3.80;;;;;;;32.13;32.69;101143.81;6160241;23;20004;-78
2023/06/10 11:18:29;;;;;;;5.28;3.40;;;;;;;32.94;31.74;101141.34;6183300;23;20039;-78
2023/06/10 11:21:02;;;;;;;4.22;3.80;;;;;;;33.02;31.24;101141.97;6183343;23;20040;-78
2023/06/10 11:23:28;;;;;;;4.35;3.60;;;;;;;32.75;31.30;101137.09;6158535;23;20009;-78
2023/06/10 11:26:31;;;;;;;6.80;3.72;;;;;;;32.36;31.56;101135.09;6208744;23;20447;-79